WetterOnline ( https://www.wetteronline.de )

Wetter aktuell Nuthetal

Aktuelles Wetter: Berlin-Tempelhof (49m)

6-stündlich | Neueste Meldungen
Ortszeit Temperatur Wetter
Di, 27.02. 19:00 5.0° C bedeckt
Di, 27.02. 13:00 6.2° C bedeckt
Di, 27.02. 7:00 3.4° C bedeckt
Di, 27.02. 1:00 5.3° C wolkig
Mo, 26.02. 19:00 8.8° C bedeckt
Mo, 26.02. 13:00 10.9° C bewölkt
Mo, 26.02. 7:00 1.8° C bedeckt
Mo, 26.02. 1:00 1.3° C wolkig
Ortszeit Temperatur Wetter
Di, 27.02. 23:30 4.1° C bedeckt
Di, 27.02. 23:20 4.1° C bedeckt
Di, 27.02. 23:10 4.1° C bedeckt
Di, 27.02. 23:00 4.2° C bedeckt
Di, 27.02. 22:50 4.2° C Dunst
Di, 27.02. 22:40 4.1° C Dunst
Di, 27.02. 22:30 4.3° C bedeckt
Di, 27.02. 22:00 4.3° C bedeckt
Di, 27.02. 21:30 4.4° C bedeckt
Di, 27.02. 21:00 4.6° C bedeckt
Di, 27.02. 20:30 4.9° C bedeckt
Ortszeit Relative Feuchte Sichtweite
Di, 27.02. 19:00 91% 12 km
Di, 27.02. 13:00 82% 21 km
Di, 27.02. 7:00 88% 30 km
Di, 27.02. 1:00 80% 40 km
Mo, 26.02. 19:00 72% 25 km
Mo, 26.02. 13:00 59% 50 km
Mo, 26.02. 7:00 97% 16 km
Mo, 26.02. 1:00 91% 30 km
Ortszeit Relative Feuchte Sichtweite
Di, 27.02. 23:30 95% 9 km
Di, 27.02. 23:20 95% -
Di, 27.02. 23:10 95% -
Di, 27.02. 23:00 95% 6 km
Di, 27.02. 22:50 95% -
Di, 27.02. 22:40 95% -
Di, 27.02. 22:30 95% 8 km
Di, 27.02. 22:00 95% 4.7 km
Di, 27.02. 21:30 95% 3.8 km
Di, 27.02. 21:00 94% 6 km
Di, 27.02. 20:30 91% 11 km
Ortszeit Niederschlagsmenge Niederschlagsart
Di, 27.02. 19:00 0.0 l/m2 in 12 Std. -
Di, 27.02. 13:00 0.0 l/m2 in 6 Std. -
Di, 27.02. 7:00 0.0 l/m2 in 12 Std. -
Di, 27.02. 1:00 0.0 l/m2 in 6 Std. -
Mo, 26.02. 19:00 0.0 l/m2 in 12 Std. -
Mo, 26.02. 13:00 0.0 l/m2 in 6 Std. -
Mo, 26.02. 7:00 0.0 l/m2 in 12 Std. -
Mo, 26.02. 1:00 0.0 l/m2 in 6 Std. -
Ortszeit Niederschlagsmenge Niederschlagsart
Di, 27.02. 23:30 0.0 l/m2 in 30 Min -
Di, 27.02. 23:20 keine Meldung -
Di, 27.02. 23:10 keine Meldung -
Di, 27.02. 23:00 <0.05 l/m2 in 1 Std. Sprühregen
Di, 27.02. 22:50 keine Meldung -
Di, 27.02. 22:40 keine Meldung -
Di, 27.02. 22:30 <0.05 l/m2 in 30 Min Schnee
Di, 27.02. 22:00 0.0 l/m2 in 1 Std. -
Di, 27.02. 21:30 0.0 l/m2 in 30 Min -
Di, 27.02. 21:00 0.0 l/m2 in 1 Std. -
Di, 27.02. 20:30 0.0 l/m2 in 30 Min -
Ortszeit Stärke Spitze Richtung
km/h Bft. km/h Grad Sektor
Di, 27.02. 19:00 11 2 29 350° N
Di, 27.02. 13:00 13 3 30 350° N
Di, 27.02. 7:00 15 3 30 350° N
Di, 27.02. 1:00 18 3 32 10° N
Mo, 26.02. 19:00 20 4 33 30° NO
Mo, 26.02. 13:00 17 3 24 60° NO
Mo, 26.02. 7:00 4 1 14 50° NO
Mo, 26.02. 1:00 4 1 11 50° NO
Ortszeit Stärke Spitze Richtung
km/h Bft. km/h Grad Sektor
Di, 27.02. 23:30 13 3 19 360° N
Di, 27.02. 23:20 13 3 - 360° N
Di, 27.02. 23:10 15 3 - 360° N
Di, 27.02. 23:00 13 3 19 360° N
Di, 27.02. 22:50 13 3 - 360° N
Di, 27.02. 22:40 13 3 - 360° N
Di, 27.02. 22:30 13 3 19 350° N
Di, 27.02. 22:00 13 3 19 360° N
Di, 27.02. 21:30 14 3 18 330° NW
Di, 27.02. 21:00 15 3 19 320° NW
Di, 27.02. 20:30 7 2 15 360° N
Ortszeit Untergrenze Bedeckung Gattung
total tief tief mittel hoch
Di, 27.02. 19:00 210 m 8/8 8/8 - - -
Di, 27.02. 13:00 330 m 8/8 8/8 - - -
Di, 27.02. 7:00 3900 m 8/8 8/8 - - -
Di, 27.02. 1:00 7800 m 8/8 0/8 - - -
Mo, 26.02. 19:00 3000 m 8/8 8/8 - - -
Mo, 26.02. 13:00 4500 m 7/8 7/8 - - -
Mo, 26.02. 7:00 6600 m 8/8 8/8 - - -
Mo, 26.02. 1:00 2400 m 8/8 1/8 - - -
Ortszeit Bedeckungsgrad in Achtel und Wolkenuntergrenze
Di, 27.02. 23:30 8(150m)
Di, 27.02. 23:20 8(150m)
Di, 27.02. 23:10 8
Di, 27.02. 23:00 8(120m)
Di, 27.02. 22:50 8(120m)
Di, 27.02. 22:40 8
Di, 27.02. 22:30 8(120m)
Di, 27.02. 22:00 8(120m)
Di, 27.02. 21:30 8(120m)
Di, 27.02. 21:00 8(150m)
Di, 27.02. 20:30 8(180m)
Ortszeit Luftdruck NN (hPa) Tendenz (hPa in 3 Std.)
Di, 27.02. 19:00 1017 + 0,8
Di, 27.02. 13:00 1016 + 0,5
Di, 27.02. 7:00 1014 + 1,0
Di, 27.02. 1:00 1012 + 1,2
Mo, 26.02. 19:00 1009 + 1,8
Mo, 26.02. 13:00 1006 + 0,1
Mo, 26.02. 7:00 1006 + 0,9
Mo, 26.02. 1:00 1005 - 0,1
Ortszeit Luftdruck NN (hPa) Tendenz (hPa in 3 Std.)
Di, 27.02. 23:30 1019 + 0,7
Di, 27.02. 23:20 1019 keine Meldung
Di, 27.02. 23:10 1019 keine Meldung
Di, 27.02. 23:00 1019 + 0,9
Di, 27.02. 22:50 1019 keine Meldung
Di, 27.02. 22:40 1019 keine Meldung
Di, 27.02. 22:30 1019 + 1,0
Di, 27.02. 22:00 1018 + 0,9
Di, 27.02. 21:30 1018 + 1,1
Di, 27.02. 21:00 1018 + 1,2
Di, 27.02. 20:30 1018 + 1,1
Ortszeit Schneehöhe (cm)
Di, 27.02. 19:00 0
Di, 27.02. 13:00 0
Di, 27.02. 7:00 0
Di, 27.02. 1:00 0
Mo, 26.02. 19:00 0
Mo, 26.02. 13:00 0
Mo, 26.02. 7:00 0
Mo, 26.02. 1:00 0
Ortszeit Schneehöhe (cm)
Di, 27.02. 23:30 0
Di, 27.02. 23:20 0
Di, 27.02. 23:10 -
Di, 27.02. 23:00 0
Di, 27.02. 22:50 0
Di, 27.02. 22:40 -
Di, 27.02. 22:30 0
Di, 27.02. 22:00 0
Di, 27.02. 21:30 0
Di, 27.02. 21:00 0
Di, 27.02. 20:30 0
Link zu dieser Seite / Seite empfehlen

Das Wetter in ...